Germes — UBAI6 — position and weather

sailwx.info

Track history (hours):
 
Tides and Currents Weather Stations Pressure Air Temp Water Temp Dewpoint Dewpoint Depression Visibility Wind Speed Wind Dir Waves Ship Positions

Germes

Last reported at 2018-Jun-20 22:42 UTC. Time now 2018-Jun-20 23:08 UTC.
Position N 45°20' E 036°29'.

Length 28 m; draft 2.9 m.

Type: Tug. MMSI: 273359640.

Date/timePositionNaut miles runAvg speedWind from/ knotsBaromVisibWave heightAir tempDewpointWater temp
2018-Jun-20 22:42N 45°20' E 036°29'0 0.0
2018-Jun-20 22:26N 45°20' E 036°29'0 0.0
2018-Jun-20 21:59N 45°20' E 036°29'0 0.0
2018-Jun-20 21:30N 45°20' E 036°29'0 0.0
2018-Jun-20 21:00N 45°20' E 036°29'0 0.0
2018-Jun-20 19:18N 45°20' E 036°29'1 2.6
2018-Jun-20 19:00N 45°20' E 036°30'3 4.8
2018-Jun-20 18:28N 45°18' E 036°32'1 0.2
2018-Jun-20 16:11N 45°17' E 036°33'0 0.0
2018-Jun-20 16:00N 45°17' E 036°33'0 0.0
2018-Jun-20 15:31N 45°17' E 036°33'3 4.1
2018-Jun-20 14:39N 45°20' E 036°29'0 0.2
2018-Jun-20 14:30N 45°20' E 036°29'0 0.4
2018-Jun-20 14:00N 45°20' E 036°29'1 2.9
2018-Jun-20 13:30N 45°19' E 036°31'1 1.3
2018-Jun-20 13:00N 45°19' E 036°30'0 0.2
2018-Jun-20 12:18N 45°19' E 036°30'0 0.1
2018-Jun-20 11:49N 45°19' E 036°30'0 1.4
2018-Jun-20 11:30N 45°19' E 036°31'2 0.5
2018-Jun-20 07:43N 45°20' E 036°29'0 0.0
2018-Jun-20 04:29N 45°20' E 036°28'0 0.0
2018-Jun-19 15:30N 45°20' E 036°29'1 2.2
2018-Jun-19 15:00N 45°19' E 036°30'1 1.5
2018-Jun-19 14:23N 45°18' E 036°30'2 0.4
2018-Jun-19 10:09N 45°20' E 036°28'0 1.0
2018-Jun-19 09:51N 45°20' E 036°29'1 2.9
2018-Jun-19 09:30N 45°19' E 036°30'1 1.1
2018-Jun-19 08:54N 45°20' E 036°29'0 0.3
2018-Jun-19 08:30N 45°20' E 036°29'1 2.4
2018-Jun-19 08:00N 45°19' E 036°30'0 0.2
2018-Jun-19 07:30N 45°19' E 036°30'2 1.5
2018-Jun-19 06:22N 45°20' E 036°29'1 2.6
2018-Jun-19 06:00N 45°19' E 036°30'1 2.0
2018-Jun-19 05:30N 45°20' E 036°29'0 0.1
2018-Jun-19 04:59N 45°20' E 036°29'0 0.1
2018-Jun-19 03:53N 45°20' E 036°29'4 0.3
2018-Jun-18 15:50N 45°17' E 036°33'0 0.0
2018-Jun-18 15:30N 45°17' E 036°33'0 0.0
2018-Jun-18 15:00N 45°17' E 036°33'0 0.6
2018-Jun-18 14:30N 45°17' E 036°33'2 4.8
2018-Jun-18 14:00N 45°19' E 036°30'0 0.3
2018-Jun-18 13:20N 45°19' E 036°30'0 0.4
2018-Jun-18 12:59N 45°19' E 036°30'0 0.2
2018-Jun-18 12:30N 45°18' E 036°30'0 0.1
2018-Jun-18 11:57N 45°19' E 036°30'0 0.8
2018-Jun-18 11:30N 45°18' E 036°31'0 0.1
2018-Jun-18 10:54N 45°18' E 036°30'0 0.9
2018-Jun-18 10:30N 45°18' E 036°30'0 0.4
2018-Jun-18 09:58N 45°19' E 036°30'0 0.2
2018-Jun-18 09:28N 45°19' E 036°30'1 1.9
2018-Jun-18 09:00N 45°19' E 036°30'1 0.5
2018-Jun-18 06:52N 45°20' E 036°29'2 6.1
2018-Jun-18 06:30N 45°19' E 036°31'1 0.0
2018-Jun-17 10:11N 45°18' E 036°30'2 0.9
2018-Jun-17 08:16N 45°20' E 036°29'0 0.0
2018-Jun-16 23:14N 45°20' E 036°28'0 0.0
2018-Jun-16 22:55N 45°20' E 036°28'0 0.0
2018-Jun-16 19:25N 45°20' E 036°28'0 0.0
2018-Jun-16 13:32N 45°20' E 036°28'0 0.0
2018-Jun-16 13:30N 45°20' E 036°28'1 2.9
2018-Jun-16 13:00N 45°19' E 036°30'3 5.2
2018-Jun-16 12:29N 45°17' E 036°33'1 1.9
2018-Jun-16 12:00N 45°18' E 036°32'1 2.9
2018-Jun-16 11:30N 45°19' E 036°30'0 0.2
2018-Jun-16 11:00N 45°19' E 036°30'0 0.3
2018-Jun-16 10:28N 45°19' E 036°30'0 0.2
2018-Jun-16 10:00N 45°19' E 036°30'0 0.0
2018-Jun-16 09:30N 45°19' E 036°30'1 1.8
2018-Jun-16 09:00N 45°19' E 036°30'1 2.2
2018-Jun-16 08:29N 45°20' E 036°28'0 0.0
2018-Jun-16 08:00N 45°20' E 036°28'0 0.0
2018-Jun-16 07:30N 45°20' E 036°28'0 0.0
2018-Jun-16 07:00N 45°20' E 036°28'0 0.0
2018-Jun-16 06:30N 45°20' E 036°28'0 0.0
2018-Jun-16 05:49N 45°20' E 036°28'0 0.6
2018-Jun-16 05:30N 45°20' E 036°29'0 0.3
2018-Jun-16 04:59N 45°20' E 036°28'0 0.0
2018-Jun-16 04:00N 45°20' E 036°28'2 0.2
2018-Jun-15 17:16N 45°19' E 036°31'2 6.6
2018-Jun-15 16:58N 45°17' E 036°33'1 1.4
2018-Jun-15 16:27N 45°17' E 036°33'0 0.0
2018-Jun-15 16:00N 45°17' E 036°33'1 1.8
2018-Jun-15 15:30N 45°18' E 036°32'3 6.3
2018-Jun-15 14:58N 45°20' E 036°29'0 0.0
2018-Jun-14 20:05N 45°20' E 036°28'0 0.0
2018-Jun-14 19:59N 45°20' E 036°28'0 0.0
2018-Jun-14 17:20N 45°20' E 036°28'0 0.0
2018-Jun-14 16:46N 45°20' E 036°28'0 0.0
2018-Jun-14 16:29N 45°20' E 036°28'1 2.6
2018-Jun-14 16:00N 45°19' E 036°30'1 2.0
2018-Jun-14 15:30N 45°19' E 036°31'0 0.1
2018-Jun-14 15:00N 45°18' E 036°31'0 0.0
2018-Jun-14 14:30N 45°19' E 036°31'1 2.4
2018-Jun-14 14:00N 45°20' E 036°30'1 0.7
2018-Jun-14 12:45N 45°20' E 036°28'0 0.7
2018-Jun-14 12:30N 45°20' E 036°29'0 0.4
2018-Jun-14 12:00N 45°20' E 036°29'0 0.4
2018-Jun-14 11:30N 45°20' E 036°29'0 0.3
2018-Jun-14 11:00N 45°20' E 036°29'0 0.0
2018-Jun-14 10:30N 45°20' E 036°29'0 0.0
2018-Jun-14 10:00N 45°20' E 036°29'0 0.0
2018-Jun-14 09:31N 45°20' E 036°29'0 0.0
2018-Jun-14 09:00N 45°20' E 036°29'0 0.0
2018-Jun-14 08:30N 45°20' E 036°29'0 0.0
2018-Jun-14 08:00N 45°20' E 036°29'0 0.0
2018-Jun-14 07:30N 45°20' E 036°29'0 0.0
2018-Jun-14 07:00N 45°20' E 036°29'0 0.0
2018-Jun-14 06:30N 45°20' E 036°29'0 0.0
2018-Jun-14 06:01N 45°20' E 036°29'0 0.0
2018-Jun-14 05:30N 45°20' E 036°29'0 0.0
2018-Jun-14 05:00N 45°20' E 036°29'0 0.0
2018-Jun-14 04:30N 45°20' E 036°29'0 0.0
2018-Jun-14 04:00N 45°20' E 036°29'0 0.0
2018-Jun-14 03:31N 45°20' E 036°29'0 0.0
2018-Jun-14 03:00N 45°20' E 036°29'0 0.0
2018-Jun-14 02:30N 45°20' E 036°29'0 0.0
2018-Jun-14 01:59N 45°20' E 036°29'0 0.0
2018-Jun-14 01:03N 45°20' E 036°29'0 0.0
2018-Jun-13 21:13N 45°20' E 036°29'0 0.0
2018-Jun-13 19:24N 45°20' E 036°29'0 0.0
2018-Jun-13 18:39N 45°20' E 036°29'0 0.0
2018-Jun-13 18:30N 45°20' E 036°29'0 0.0
2018-Jun-13 17:59N 45°20' E 036°29'0 0.0
2018-Jun-13 17:31N 45°20' E 036°29'0 0.0
2018-Jun-13 17:00N 45°20' E 036°29'0 0.0
2018-Jun-13 16:30N 45°20' E 036°29'0 0.0
2018-Jun-13 16:01N 45°20' E 036°29'0 0.1
2018-Jun-13 15:27N 45°20' E 036°29'2 3.6
2018-Jun-13 15:00N 45°19' E 036°30'0 0.5
2018-Jun-13 14:30N 45°19' E 036°31'0 0.3
2018-Jun-13 14:00N 45°19' E 036°30'0 0.1
2018-Jun-13 12:51N 45°19' E 036°30'0 0.3
2018-Jun-13 12:30N 45°19' E 036°30'1 1.4
2018-Jun-13 12:00N 45°19' E 036°31'1 1.0
2018-Jun-13 11:30N 45°19' E 036°30'1 2.9
2018-Jun-13 11:00N 45°18' E 036°32'0 0.7
2018-Jun-13 10:30N 45°18' E 036°32'2 2.9
2018-Jun-13 09:58N 45°19' E 036°31'0 1.0
2018-Jun-13 09:30N 45°19' E 036°31'2 3.2
2018-Jun-13 09:00N 45°20' E 036°29'0 0.0
2018-Jun-13 08:29N 45°20' E 036°29'1 1.8
2018-Jun-13 08:00N 45°20' E 036°30'1 2.2
2018-Jun-13 07:30N 45°19' E 036°31'2 3.3
2018-Jun-13 07:00N 45°17' E 036°32'1 1.3
2018-Jun-13 06:31N 45°17' E 036°33'0 0.0
2018-Jun-13 06:00N 45°17' E 036°33'0 0.0
2018-Jun-13 05:31N 45°17' E 036°33'0 0.0
2018-Jun-13 05:00N 45°17' E 036°33'0 0.0
2018-Jun-13 04:30N 45°17' E 036°33'0 0.0
2018-Jun-13 04:00N 45°17' E 036°33'0 0.0
2018-Jun-13 03:30N 45°17' E 036°33'0 0.0
2018-Jun-13 03:00N 45°17' E 036°33'0 0.0
2018-Jun-13 02:30N 45°17' E 036°33'0 0.0
2018-Jun-13 02:00N 45°17' E 036°33'0 0.0
2018-Jun-13 01:30N 45°17' E 036°33'0 0.0
2018-Jun-13 01:00N 45°17' E 036°33'0 0.0
2018-Jun-13 00:31N 45°17' E 036°33'0 0.0
2018-Jun-13 00:00N 45°17' E 036°33'0 0.0
2018-Jun-12 23:30N 45°17' E 036°33'0 0.0
2018-Jun-12 23:00N 45°17' E 036°33'0 0.0
2018-Jun-12 22:27N 45°17' E 036°33'0 0.0
2018-Jun-12 22:00N 45°17' E 036°33'0 0.0
2018-Jun-12 21:21N 45°17' E 036°33'0 0.0
2018-Jun-12 21:00N 45°17' E 036°33'0 0.0
2018-Jun-12 20:30N 45°17' E 036°33'0 0.0
2018-Jun-12 20:00N 45°17' E 036°33'0 0.0
2018-Jun-12 18:02N 45°17' E 036°33'0 0.0
2018-Jun-12 17:54N 45°17' E 036°33'0 0.0
2018-Jun-12 17:06N 45°17' E 036°33'0 0.0
2018-Jun-12 16:52N 45°17' E 036°33'1 2.5
2018-Jun-12 16:27N 45°18' E 036°32'1 2.9
2018-Jun-12 16:00N 45°19' E 036°31'2 3.4
2018-Jun-12 15:30N 45°20' E 036°29'1 1.3
2018-Jun-12 15:00N 45°20' E 036°30'1 1.7
2018-Jun-12 14:16N 45°19' E 036°31'0 0.0
2018-Jun-12 14:00N 45°19' E 036°31'1 2.4
2018-Jun-12 13:31N 45°20' E 036°30'1 0.9
2018-Jun-12 12:36N 45°20' E 036°29'0 0.0
2018-Jun-12 12:23N 45°20' E 036°29'0 0.0
2018-Jun-12 11:44N 45°20' E 036°29'1 2.6
2018-Jun-12 11:30N 45°20' E 036°30'1 2.6
2018-Jun-12 11:00N 45°19' E 036°31'2 3.3
2018-Jun-12 10:29N 45°20' E 036°29'0 0.0
2018-Jun-11 18:21N 45°20' E 036°28'0 0.0
2018-Jun-11 17:48N 45°20' E 036°28'0 0.0
2018-Jun-11 16:33N 45°20' E 036°29'0 2.9
2018-Jun-11 16:31N 45°20' E 036°29'0 0.0
2018-Jun-11 16:00N 45°20' E 036°29'0 0.2
2018-Jun-11 15:30N 45°20' E 036°29'0 0.2
2018-Jun-11 14:53N 45°20' E 036°29'1 1.5
2018-Jun-11 14:31N 45°20' E 036°29'1 2.9
2018-Jun-11 13:59N 45°19' E 036°30'0 0.4
2018-Jun-11 13:30N 45°18' E 036°30'2 4.2
2018-Jun-11 13:00N 45°17' E 036°33'0 0.6
2018-Jun-11 12:30N 45°17' E 036°33'0 0.0
2018-Jun-11 12:00N 45°17' E 036°33'0 0.0
2018-Jun-11 11:30N 45°17' E 036°33'0 0.0
2018-Jun-11 11:00N 45°17' E 036°33'0 0.0
2018-Jun-11 10:30N 45°17' E 036°33'0 0.0
2018-Jun-11 10:01N 45°17' E 036°33'0 0.0
2018-Jun-11 09:30N 45°17' E 036°33'0 0.0
2018-Jun-11 09:00N 45°17' E 036°33'0 0.0
2018-Jun-11 08:30N 45°17' E 036°33'3 5.0
2018-Jun-11 07:57N 45°19' E 036°31'1 1.2
2018-Jun-11 07:30N 45°19' E 036°30'1 1.7
2018-Jun-11 07:00N 45°19' E 036°30'0 0.0
2018-Jun-11 06:29N 45°19' E 036°30'0 0.0
2018-Jun-11 06:00N 45°19' E 036°30'2 3.5
2018-Jun-11 05:30N 45°20' E 036°29'  
Track history (hours):
 
Tides and Currents Weather Stations Pressure Air Temp Water Temp Dewpoint Dewpoint Depression Visibility Wind Speed Wind Dir Waves Ship Positions

Germes

Last reported at 2018-Jun-20 22:42 UTC. Time now 2018-Jun-20 23:08 UTC.
Position N 45°20' E 036°29'.

Length 28 m; draft 2.9 m.

Type: Tug. MMSI: 273359640.

Date/timePositionNaut miles runAvg speedWind from/ knotsBaromVisibWave heightAir tempDewpointWater temp
2018-Jun-20 22:42N 45°20' E 036°29'0 0.0
2018-Jun-20 22:26N 45°20' E 036°29'0 0.0
2018-Jun-20 21:59N 45°20' E 036°29'0 0.0
2018-Jun-20 21:30N 45°20' E 036°29'0 0.0
2018-Jun-20 21:00N 45°20' E 036°29'0 0.0
2018-Jun-20 19:18N 45°20' E 036°29'1 2.6
2018-Jun-20 19:00N 45°20' E 036°30'3 4.8
2018-Jun-20 18:28N 45°18' E 036°32'1 0.2
2018-Jun-20 16:11N 45°17' E 036°33'0 0.0
2018-Jun-20 16:00N 45°17' E 036°33'0 0.0
2018-Jun-20 15:31N 45°17' E 036°33'3 4.1
2018-Jun-20 14:39N 45°20' E 036°29'0 0.2
2018-Jun-20 14:30N 45°20' E 036°29'0 0.4
2018-Jun-20 14:00N 45°20' E 036°29'1 2.9
2018-Jun-20 13:30N 45°19' E 036°31'1 1.3
2018-Jun-20 13:00N 45°19' E 036°30'0 0.2
2018-Jun-20 12:18N 45°19' E 036°30'0 0.1
2018-Jun-20 11:49N 45°19' E 036°30'0 1.4
2018-Jun-20 11:30N 45°19' E 036°31'2 0.5
2018-Jun-20 07:43N 45°20' E 036°29'0 0.0
2018-Jun-20 04:29N 45°20' E 036°28'0 0.0
2018-Jun-19 15:30N 45°20' E 036°29'1 2.2
2018-Jun-19 15:00N 45°19' E 036°30'1 1.5
2018-Jun-19 14:23N 45°18' E 036°30'2 0.4
2018-Jun-19 10:09N 45°20' E 036°28'0 1.0
2018-Jun-19 09:51N 45°20' E 036°29'1 2.9
2018-Jun-19 09:30N 45°19' E 036°30'1 1.1
2018-Jun-19 08:54N 45°20' E 036°29'0 0.3
2018-Jun-19 08:30N 45°20' E 036°29'1 2.4
2018-Jun-19 08:00N 45°19' E 036°30'0 0.2
2018-Jun-19 07:30N 45°19' E 036°30'2 1.5
2018-Jun-19 06:22N 45°20' E 036°29'1 2.6
2018-Jun-19 06:00N 45°19' E 036°30'1 2.0
2018-Jun-19 05:30N 45°20' E 036°29'0 0.1
2018-Jun-19 04:59N 45°20' E 036°29'0 0.1
2018-Jun-19 03:53N 45°20' E 036°29'4 0.3
2018-Jun-18 15:50N 45°17' E 036°33'0 0.0
2018-Jun-18 15:30N 45°17' E 036°33'0 0.0
2018-Jun-18 15:00N 45°17' E 036°33'0 0.6
2018-Jun-18 14:30N 45°17' E 036°33'2 4.8
2018-Jun-18 14:00N 45°19' E 036°30'0 0.3
2018-Jun-18 13:20N 45°19' E 036°30'0 0.4
2018-Jun-18 12:59N 45°19' E 036°30'0 0.2
2018-Jun-18 12:30N 45°18' E 036°30'0 0.1
2018-Jun-18 11:57N 45°19' E 036°30'0 0.8
2018-Jun-18 11:30N 45°18' E 036°31'0 0.1
2018-Jun-18 10:54N 45°18' E 036°30'0 0.9
2018-Jun-18 10:30N 45°18' E 036°30'0 0.4
2018-Jun-18 09:58N 45°19' E 036°30'0 0.2
2018-Jun-18 09:28N 45°19' E 036°30'1 1.9
2018-Jun-18 09:00N 45°19' E 036°30'1 0.5
2018-Jun-18 06:52N 45°20' E 036°29'2 6.1
2018-Jun-18 06:30N 45°19' E 036°31'1 0.0
2018-Jun-17 10:11N 45°18' E 036°30'2 0.9
2018-Jun-17 08:16N 45°20' E 036°29'0 0.0
2018-Jun-16 23:14N 45°20' E 036°28'0 0.0
2018-Jun-16 22:55N 45°20' E 036°28'0 0.0
2018-Jun-16 19:25N 45°20' E 036°28'0 0.0
2018-Jun-16 13:32N 45°20' E 036°28'0 0.0
2018-Jun-16 13:30N 45°20' E 036°28'1 2.9
2018-Jun-16 13:00N 45°19' E 036°30'3 5.2
2018-Jun-16 12:29N 45°17' E 036°33'1 1.9
2018-Jun-16 12:00N 45°18' E 036°32'1 2.9
2018-Jun-16 11:30N 45°19' E 036°30'0 0.2
2018-Jun-16 11:00N 45°19' E 036°30'0 0.3
2018-Jun-16 10:28N 45°19' E 036°30'0 0.2
2018-Jun-16 10:00N 45°19' E 036°30'0 0.0
2018-Jun-16 09:30N 45°19' E 036°30'1 1.8
2018-Jun-16 09:00N 45°19' E 036°30'1 2.2
2018-Jun-16 08:29N 45°20' E 036°28'0 0.0
2018-Jun-16 08:00N 45°20' E 036°28'0 0.0
2018-Jun-16 07:30N 45°20' E 036°28'0 0.0
2018-Jun-16 07:00N 45°20' E 036°28'0 0.0
2018-Jun-16 06:30N 45°20' E 036°28'0 0.0
2018-Jun-16 05:49N 45°20' E 036°28'0 0.6
2018-Jun-16 05:30N 45°20' E 036°29'0 0.3
2018-Jun-16 04:59N 45°20' E 036°28'0 0.0
2018-Jun-16 04:00N 45°20' E 036°28'2 0.2
2018-Jun-15 17:16N 45°19' E 036°31'2 6.6
2018-Jun-15 16:58N 45°17' E 036°33'1 1.4
2018-Jun-15 16:27N 45°17' E 036°33'0 0.0
2018-Jun-15 16:00N 45°17' E 036°33'1 1.8
2018-Jun-15 15:30N 45°18' E 036°32'3 6.3
2018-Jun-15 14:58N 45°20' E 036°29'0 0.0
2018-Jun-14 20:05N 45°20' E 036°28'0 0.0
2018-Jun-14 19:59N 45°20' E 036°28'0 0.0
2018-Jun-14 17:20N 45°20' E 036°28'0 0.0
2018-Jun-14 16:46N 45°20' E 036°28'0 0.0
2018-Jun-14 16:29N 45°20' E 036°28'1 2.6
2018-Jun-14 16:00N 45°19' E 036°30'1 2.0
2018-Jun-14 15:30N 45°19' E 036°31'0 0.1
2018-Jun-14 15:00N 45°18' E 036°31'0 0.0
2018-Jun-14 14:30N 45°19' E 036°31'1 2.4
2018-Jun-14 14:00N 45°20' E 036°30'1 0.7
2018-Jun-14 12:45N 45°20' E 036°28'0 0.7
2018-Jun-14 12:30N 45°20' E 036°29'0 0.4
2018-Jun-14 12:00N 45°20' E 036°29'0 0.4
2018-Jun-14 11:30N 45°20' E 036°29'0 0.3
2018-Jun-14 11:00N 45°20' E 036°29'0 0.0
2018-Jun-14 10:30N 45°20' E 036°29'0 0.0
2018-Jun-14 10:00N 45°20' E 036°29'0 0.0
2018-Jun-14 09:31N 45°20' E 036°29'0 0.0
2018-Jun-14 09:00N 45°20' E 036°29'0 0.0
2018-Jun-14 08:30N 45°20' E 036°29'0 0.0
2018-Jun-14 08:00N 45°20' E 036°29'0 0.0
2018-Jun-14 07:30N 45°20' E 036°29'0 0.0
2018-Jun-14 07:00N 45°20' E 036°29'0 0.0
2018-Jun-14 06:30N 45°20' E 036°29'0 0.0
2018-Jun-14 06:01N 45°20' E 036°29'0 0.0
2018-Jun-14 05:30N 45°20' E 036°29'0 0.0
2018-Jun-14 05:00N 45°20' E 036°29'0 0.0
2018-Jun-14 04:30N 45°20' E 036°29'0 0.0
2018-Jun-14 04:00N 45°20' E 036°29'0 0.0
2018-Jun-14 03:31N 45°20' E 036°29'0 0.0
2018-Jun-14 03:00N 45°20' E 036°29'0 0.0
2018-Jun-14 02:30N 45°20' E 036°29'0 0.0
2018-Jun-14 01:59N 45°20' E 036°29'0 0.0
2018-Jun-14 01:03N 45°20' E 036°29'0 0.0
2018-Jun-13 21:13N 45°20' E 036°29'0 0.0
2018-Jun-13 19:24N 45°20' E 036°29'0 0.0
2018-Jun-13 18:39N 45°20' E 036°29'0 0.0
2018-Jun-13 18:30N 45°20' E 036°29'0 0.0
2018-Jun-13 17:59N 45°20' E 036°29'0 0.0
2018-Jun-13 17:31N 45°20' E 036°29'0 0.0
2018-Jun-13 17:00N 45°20' E 036°29'0 0.0
2018-Jun-13 16:30N 45°20' E 036°29'0 0.0
2018-Jun-13 16:01N 45°20' E 036°29'0 0.1
2018-Jun-13 15:27N 45°20' E 036°29'2 3.6
2018-Jun-13 15:00N 45°19' E 036°30'0 0.5
2018-Jun-13 14:30N 45°19' E 036°31'0 0.3
2018-Jun-13 14:00N 45°19' E 036°30'0 0.1
2018-Jun-13 12:51N 45°19' E 036°30'0 0.3
2018-Jun-13 12:30N 45°19' E 036°30'1 1.4
2018-Jun-13 12:00N 45°19' E 036°31'1 1.0
2018-Jun-13 11:30N 45°19' E 036°30'1 2.9
2018-Jun-13 11:00N 45°18' E 036°32'0 0.7
2018-Jun-13 10:30N 45°18' E 036°32'2 2.9
2018-Jun-13 09:58N 45°19' E 036°31'0 1.0
2018-Jun-13 09:30N 45°19' E 036°31'2 3.2
2018-Jun-13 09:00N 45°20' E 036°29'0 0.0
2018-Jun-13 08:29N 45°20' E 036°29'1 1.8
2018-Jun-13 08:00N 45°20' E 036°30'1 2.2
2018-Jun-13 07:30N 45°19' E 036°31'2 3.3
2018-Jun-13 07:00N 45°17' E 036°32'1 1.3
2018-Jun-13 06:31N 45°17' E 036°33'0 0.0
2018-Jun-13 06:00N 45°17' E 036°33'0 0.0
2018-Jun-13 05:31N 45°17' E 036°33'0 0.0
2018-Jun-13 05:00N 45°17' E 036°33'0 0.0
2018-Jun-13 04:30N 45°17' E 036°33'0 0.0
2018-Jun-13 04:00N 45°17' E 036°33'0 0.0
2018-Jun-13 03:30N 45°17' E 036°33'0 0.0
2018-Jun-13 03:00N 45°17' E 036°33'0 0.0
2018-Jun-13 02:30N 45°17' E 036°33'0 0.0
2018-Jun-13 02:00N 45°17' E 036°33'0 0.0
2018-Jun-13 01:30N 45°17' E 036°33'0 0.0
2018-Jun-13 01:00N 45°17' E 036°33'0 0.0
2018-Jun-13 00:31N 45°17' E 036°33'0 0.0
2018-Jun-13 00:00N 45°17' E 036°33'0 0.0
2018-Jun-12 23:30N 45°17' E 036°33'0 0.0
2018-Jun-12 23:00N 45°17' E 036°33'0 0.0
2018-Jun-12 22:27N 45°17' E 036°33'0 0.0
2018-Jun-12 22:00N 45°17' E 036°33'0 0.0
2018-Jun-12 21:21N 45°17' E 036°33'0 0.0
2018-Jun-12 21:00N 45°17' E 036°33'0 0.0
2018-Jun-12 20:30N 45°17' E 036°33'0 0.0
2018-Jun-12 20:00N 45°17' E 036°33'0 0.0
2018-Jun-12 18:02N 45°17' E 036°33'0 0.0
2018-Jun-12 17:54N 45°17' E 036°33'0 0.0
2018-Jun-12 17:06N 45°17' E 036°33'0 0.0
2018-Jun-12 16:52N 45°17' E 036°33'1 2.5
2018-Jun-12 16:27N 45°18' E 036°32'1 2.9
2018-Jun-12 16:00N 45°19' E 036°31'2 3.4
2018-Jun-12 15:30N 45°20' E 036°29'1 1.3
2018-Jun-12 15:00N 45°20' E 036°30'1 1.7
2018-Jun-12 14:16N 45°19' E 036°31'0 0.0
2018-Jun-12 14:00N 45°19' E 036°31'1 2.4
2018-Jun-12 13:31N 45°20' E 036°30'1 0.9
2018-Jun-12 12:36N 45°20' E 036°29'0 0.0
2018-Jun-12 12:23N 45°20' E 036°29'0 0.0
2018-Jun-12 11:44N 45°20' E 036°29'1 2.6
2018-Jun-12 11:30N 45°20' E 036°30'1 2.6
2018-Jun-12 11:00N 45°19' E 036°31'2 3.3
2018-Jun-12 10:29N 45°20' E 036°29'0 0.0
2018-Jun-11 18:21N 45°20' E 036°28'0 0.0
2018-Jun-11 17:48N 45°20' E 036°28'0 0.0
2018-Jun-11 16:33N 45°20' E 036°29'0 2.9
2018-Jun-11 16:31N 45°20' E 036°29'0 0.0
2018-Jun-11 16:00N 45°20' E 036°29'0 0.2
2018-Jun-11 15:30N 45°20' E 036°29'0 0.2
2018-Jun-11 14:53N 45°20' E 036°29'1 1.5
2018-Jun-11 14:31N 45°20' E 036°29'1 2.9
2018-Jun-11 13:59N 45°19' E 036°30'0 0.4
2018-Jun-11 13:30N 45°18' E 036°30'2 4.2
2018-Jun-11 13:00N 45°17' E 036°33'0 0.6
2018-Jun-11 12:30N 45°17' E 036°33'0 0.0
2018-Jun-11 12:00N 45°17' E 036°33'0 0.0
2018-Jun-11 11:30N 45°17' E 036°33'0 0.0
2018-Jun-11 11:00N 45°17' E 036°33'0 0.0
2018-Jun-11 10:30N 45°17' E 036°33'0 0.0
2018-Jun-11 10:01N 45°17' E 036°33'0 0.0
2018-Jun-11 09:30N 45°17' E 036°33'0 0.0
2018-Jun-11 09:00N 45°17' E 036°33'0 0.0
2018-Jun-11 08:30N 45°17' E 036°33'3 5.0
2018-Jun-11 07:57N 45°19' E 036°31'1 1.2
2018-Jun-11 07:30N 45°19' E 036°30'1 1.7
2018-Jun-11 07:00N 45°19' E 036°30'0 0.0
2018-Jun-11 06:29N 45°19' E 036°30'0 0.0
2018-Jun-11 06:00N 45°19' E 036°30'2 3.5
2018-Jun-11 05:30N 45°20' E 036°29'  

Dump ship's entire track history